Island Viking — WDG5991 — position and weather

sailwx.info

Track history (hours):
 
Tides and Currents Weather Stations Pressure Air Temp Water Temp Dewpoint Dewpoint Depression Visibility Wind Speed Wind Dir Waves Ship Positions

Island Viking

Owner: Island Tug and Barge, Seattle, WA. More information available from US FCC via Universal Licensing System and Coast Guard Vessel Documentation Center.

Last reported at 2017-Dec-15 20:00 UTC. Time now 2017-Dec-15 20:01 UTC.
Position N 45°42' W 122°46'.

Length 35 m; draft 3.5 m.

Type: Towing. MMSI: 368637000.

Date/timePositionNaut miles runAvg speedWind from/ knotsBaromVisibWave heightAir tempDewpointWater temp
2017-Dec-15 20:00N 45°42' W 122°46'3 5.6
2017-Dec-15 19:30N 45°44' W 122°46'3 5.3
2017-Dec-15 19:00N 45°47' W 122°47'2 4.9
2017-Dec-15 18:30N 45°49' W 122°48'2 4.8
2017-Dec-15 18:01N 45°52' W 122°47'2 4.4
2017-Dec-15 17:30N 45°54' W 122°48'2 4.5
2017-Dec-15 17:00N 45°56' W 122°48'2 4.5
2017-Dec-15 16:30N 45°58' W 122°50'2 4.8
2017-Dec-15 16:00N 46°00' W 122°51'2 4.5
2017-Dec-15 15:31N 46°02' W 122°53'2 4.5
2017-Dec-15 15:00N 46°04' W 122°54'2 4.2
2017-Dec-15 14:31N 46°06' W 122°56'3 4.7
2017-Dec-15 13:54N 46°07' W 122°59'2 4.5
2017-Dec-15 13:30N 46°08' W 123°01'5 4.7
2017-Dec-15 12:23N 46°11' W 123°08'2 4.8
2017-Dec-15 12:00N 46°11' W 123°10'2 4.9
2017-Dec-15 11:30N 46°10' W 123°13'2 4.9
2017-Dec-15 11:00N 46°09' W 123°17'3 5.4
2017-Dec-15 10:30N 46°09' W 123°21'4 5.5
2017-Dec-15 09:52N 46°10' W 123°25'3 5.7
2017-Dec-15 09:20N 46°13' W 123°25'2 6.1
2017-Dec-15 09:00N 46°15' W 123°27'3 5.9
2017-Dec-15 08:30N 46°16' W 123°31'3 6.8
2017-Dec-15 08:00N 46°15' W 123°35'4 7.1
2017-Dec-15 07:30N 46°15' W 123°41'3 5.9
2017-Dec-15 07:00N 46°14' W 123°44'4 7.1
2017-Dec-15 06:28N 46°12' W 123°49'4 7.8
2017-Dec-15 06:00N 46°11' W 123°54'3 3.6
2017-Dec-15 05:05N 46°14' W 123°58'0 1.1
2017-Dec-15 05:00N 46°14' W 123°58'1 1.4
2017-Dec-15 04:30N 46°14' W 123°58'2 3.7
2017-Dec-15 04:00N 46°15' W 124°01'7 5.0
2017-Dec-15 02:30N 46°13' W 124°11'7 4.3
2017-Dec-15 01:00N 46°18' W 124°17'3 6.8
2017-Dec-15 00:30N 46°21' W 124°19'39 6.5
2017-Dec-14 18:30N 46°59' W 124°32'6 6.0
2017-Dec-14 17:34N 47°05' W 124°34'1 6.3
2017-Dec-14 17:20N 47°06' W 124°34'76 6.0
2017-Dec-14 04:46N 48°21' W 124°51'2 6.3
2017-Dec-14 04:30N 48°23' W 124°49'3 6.6
2017-Dec-14 04:00N 48°25' W 124°46'4 7.2
2017-Dec-14 03:30N 48°25' W 124°41'4 7.5
2017-Dec-14 03:00N 48°24' W 124°36'4 7.1
2017-Dec-14 02:30N 48°23' W 124°31'4 7.5
2017-Dec-14 02:00N 48°21' W 124°25'4 8.3
2017-Dec-14 01:30N 48°19' W 124°20'4 8.6
2017-Dec-14 01:00N 48°17' W 124°14'4 8.8
2017-Dec-14 00:30N 48°16' W 124°08'4 8.3
2017-Dec-13 23:58N 48°14' W 124°02'4 8.1
2017-Dec-13 23:29N 48°12' W 123°56'4 7.8
2017-Dec-13 23:00N 48°12' W 123°51'4 7.1
2017-Dec-13 22:30N 48°12' W 123°46'3 6.9
2017-Dec-13 22:00N 48°12' W 123°40'4 7.1
2017-Dec-13 21:29N 48°14' W 123°36'3 6.9
2017-Dec-13 21:00N 48°16' W 123°31'4 7.1
2017-Dec-13 20:29N 48°19' W 123°29'4 6.8
2017-Dec-13 19:56N 48°22' W 123°26'3 6.2
2017-Dec-13 19:30N 48°25' W 123°27'2 3.3
2017-Dec-13 18:59N 48°27' W 123°27'0 0.2
2017-Dec-13 18:30N 48°27' W 123°27'0 0.2
2017-Dec-13 18:00N 48°27' W 123°27'0 0.1
2017-Dec-13 17:30N 48°27' W 123°27'0 0.3
2017-Dec-13 16:59N 48°27' W 123°27'0 0.4
2017-Dec-13 16:27N 48°27' W 123°27'0 0.4
2017-Dec-13 15:59N 48°27' W 123°27'1 1.0
2017-Dec-13 15:30N 48°26' W 123°27'1 2.9
2017-Dec-13 15:00N 48°25' W 123°27'0 0.2
2017-Dec-13 14:30N 48°25' W 123°26'1 1.7
2017-Dec-13 14:00N 48°24' W 123°26'3 5.6
2017-Dec-13 13:30N 48°21' W 123°24'4 6.5
2017-Dec-13 12:57N 48°18' W 123°26'4 7.6
2017-Dec-13 12:29N 48°15' W 123°28'3 7.0
2017-Dec-13 12:00N 48°13' W 123°33'3 6.5
2017-Dec-13 11:30N 48°13' W 123°38'4 7.7
2017-Dec-13 11:00N 48°13' W 123°43'4 8.4
2017-Dec-13 10:30N 48°13' W 123°50'4 8.2
2017-Dec-13 10:00N 48°13' W 123°56'4 7.8
2017-Dec-13 09:29N 48°14' W 124°02'4 7.7
2017-Dec-13 08:57N 48°16' W 124°07'3 7.8
2017-Dec-13 08:30N 48°17' W 124°12'4 8.5
2017-Dec-13 08:00N 48°19' W 124°18'4 8.7
2017-Dec-13 07:30N 48°21' W 124°24'5 9.1
2017-Dec-13 07:00N 48°22' W 124°30'4 8.8
2017-Dec-13 06:30N 48°24' W 124°36'4 7.7
2017-Dec-13 06:00N 48°25' W 124°42'4 7.1
2017-Dec-13 05:30N 48°25' W 124°47'4 7.9
2017-Dec-13 04:59N 48°22' W 124°51'4 8.2
2017-Dec-13 04:30N 48°18' W 124°54'4 8.0
2017-Dec-13 03:59N 48°15' W 124°57'3 7.2
2017-Dec-13 03:30N 48°12' W 124°58'5 7.6
2017-Dec-13 02:52N 48°07' W 124°57'63 7.6
2017-Dec-12 18:35N 47°06' W 124°34'1 6.9
2017-Dec-12 18:27N 47°05' W 124°34'3 6.9
2017-Dec-12 18:00N 47°02' W 124°32'3 6.7
2017-Dec-12 17:31N 46°59' W 124°31'3 6.7
2017-Dec-12 17:00N 46°55' W 124°30'3 6.9
2017-Dec-12 16:30N 46°52' W 124°29'3 6.9
2017-Dec-12 16:00N 46°49' W 124°28'4 7.2
2017-Dec-12 15:30N 46°45' W 124°27'4 7.1
2017-Dec-12 15:00N 46°42' W 124°24'3 6.8
2017-Dec-12 14:31N 46°39' W 124°21'4 7.1
2017-Dec-12 14:00N 46°36' W 124°20'4 7.4
2017-Dec-12 13:30N 46°32' W 124°20'4 7.3
2017-Dec-12 13:00N 46°29' W 124°19'4 7.1
2017-Dec-12 12:30N 46°25' W 124°19'3 6.9
2017-Dec-12 12:00N 46°22' W 124°19'3 6.8
2017-Dec-12 11:30N 46°19' W 124°16'4 7.3
2017-Dec-12 11:00N 46°17' W 124°11'3 6.7
2017-Dec-12 10:30N 46°16' W 124°07'4 7.6
2017-Dec-12 10:00N 46°15' W 124°01'4 8.9
2017-Dec-12 09:31N 46°12' W 123°57'4 8.9
2017-Dec-12 09:01N 46°12' W 123°50'4 8.7
2017-Dec-12 08:31N 46°13' W 123°45'4 7.9
2017-Dec-12 08:00N 46°15' W 123°40'4 8.0
2017-Dec-12 07:30N 46°15' W 123°34'4 7.5
2017-Dec-12 07:00N 46°16' W 123°29'3 6.8
2017-Dec-12 06:30N 46°14' W 123°25'4 6.6
2017-Dec-12 05:57N 46°10' W 123°25'4 6.5
2017-Dec-12 05:19N 46°09' W 123°19'2 6.7
2017-Dec-12 05:00N 46°09' W 123°16'3 6.8
2017-Dec-12 04:30N 46°11' W 123°12'3 6.7
2017-Dec-12 04:00N 46°11' W 123°07'4 7.4
2017-Dec-12 03:30N 46°09' W 123°03'4 7.9
2017-Dec-12 03:00N 46°07' W 122°58'4 8.0
2017-Dec-12 02:27N 46°04' W 122°53'4 8.0
2017-Dec-12 02:00N 46°01' W 122°51'4 8.0
2017-Dec-12 01:30N 45°57' W 122°48'4 8.0
2017-Dec-12 01:01N 45°53' W 122°48'4 7.7
2017-Dec-12 00:30N 45°49' W 122°48'4 7.8
2017-Dec-12 00:00N 45°46' W 122°46'4 7.6
2017-Dec-11 23:30N 45°42' W 122°46'3 5.9
2017-Dec-11 23:00N 45°39' W 122°45'0 0.6
2017-Dec-11 22:30N 45°39' W 122°45'0 0.0
2017-Dec-11 22:00N 45°39' W 122°45'0 0.1
2017-Dec-11 21:31N 45°39' W 122°45'0 0.0
2017-Dec-11 21:01N 45°39' W 122°45'0 0.0
2017-Dec-11 20:31N 45°39' W 122°45'0 0.0
2017-Dec-11 20:00N 45°39' W 122°45'0 0.0
2017-Dec-11 19:31N 45°39' W 122°45'0 0.1
2017-Dec-11 19:00N 45°39' W 122°45'0 0.1
2017-Dec-11 18:30N 45°39' W 122°45'0 0.0
2017-Dec-11 18:00N 45°39' W 122°45'0 0.0
2017-Dec-11 17:30N 45°39' W 122°45'0 0.1
2017-Dec-11 17:01N 45°39' W 122°45'0 0.0
2017-Dec-11 16:31N 45°39' W 122°45'0 0.2
2017-Dec-11 16:00N 45°39' W 122°45'0 0.2
2017-Dec-11 15:30N 45°39' W 122°45'0 0.0
2017-Dec-11 15:00N 45°39' W 122°45'0 0.0
2017-Dec-11 14:30N 45°39' W 122°45'0 0.0
2017-Dec-11 14:00N 45°39' W 122°45'0 0.0
2017-Dec-11 13:30N 45°39' W 122°45'0 0.0
2017-Dec-11 13:00N 45°39' W 122°45'0 0.0
2017-Dec-11 12:30N 45°39' W 122°45'0 0.0
2017-Dec-11 12:00N 45°39' W 122°45'0 0.0
2017-Dec-11 11:30N 45°39' W 122°45'0 0.0
2017-Dec-11 11:00N 45°39' W 122°45'0 0.0
2017-Dec-11 10:30N 45°39' W 122°45'0 0.0
2017-Dec-11 10:01N 45°39' W 122°45'0 0.0
2017-Dec-11 09:30N 45°39' W 122°45'0 0.0
2017-Dec-11 09:00N 45°39' W 122°45'0 0.0
2017-Dec-11 08:28N 45°39' W 122°45'0 0.0
2017-Dec-11 08:01N 45°39' W 122°45'0 0.0
2017-Dec-11 07:31N 45°39' W 122°45'0 0.0
2017-Dec-11 07:00N 45°39' W 122°45'0 0.0
2017-Dec-11 06:30N 45°39' W 122°45'0 0.0
2017-Dec-11 06:00N 45°39' W 122°45'0 0.0
2017-Dec-11 05:30N 45°39' W 122°45'0 0.0
2017-Dec-11 05:00N 45°39' W 122°45'0 0.0
2017-Dec-11 04:31N 45°39' W 122°45'0 0.0
2017-Dec-11 04:01N 45°39' W 122°45'0 0.9
2017-Dec-11 03:30N 45°39' W 122°45'0 0.9
2017-Dec-11 03:00N 45°39' W 122°45'1 2.0
2017-Dec-11 02:30N 45°40' W 122°46'2 4.1
2017-Dec-11 02:00N 45°42' W 122°46'2 4.3
2017-Dec-11 01:30N 45°44' W 122°46'2 4.3
2017-Dec-11 01:00N 45°46' W 122°46'4 6.9
2017-Dec-11 00:29N 45°50' W 122°47'0 1.0
2017-Dec-11 00:00N 45°50' W 122°47'2 3.9
2017-Dec-10 23:30N 45°52' W 122°47'2 3.7
2017-Dec-10 23:00N 45°54' W 122°48'2 4.0
2017-Dec-10 22:30N 45°56' W 122°48'2 4.0
2017-Dec-10 22:00N 45°58' W 122°49'2 4.4
2017-Dec-10 21:30N 45°60' W 122°51'2 4.4
2017-Dec-10 21:00N 46°01' W 122°52'2 4.3
2017-Dec-10 20:30N 46°03' W 122°53'2 4.4
2017-Dec-10 20:00N 46°05' W 122°55'3 4.7
2017-Dec-10 19:28N 46°07' W 122°58'2 4.9
2017-Dec-10 19:00N 46°08' W 123°01'2 4.9
2017-Dec-10 18:30N 46°09' W 123°04'3 5.1
2017-Dec-10 18:00N 46°11' W 123°07'3 5.2
2017-Dec-10 17:30N 46°11' W 123°10'3 5.6
2017-Dec-10 17:00N 46°10' W 123°14'3 5.8
2017-Dec-10 16:30N 46°09' W 123°18'3 5.9
2017-Dec-10 16:01N 46°09' W 123°22'3 6.0
2017-Dec-10 15:31N 46°11' W 123°25'4 6.2
2017-Dec-10 14:56N 46°14' W 123°26'3 6.5
2017-Dec-10 14:30N 46°16' W 123°28'3 6.6
2017-Dec-10 14:01N 46°15' W 123°33'5 7.1
2017-Dec-10 13:22N 46°15' W 123°40'3 7.3
2017-Dec-10 13:01N 46°14' W 123°43'4 7.4
2017-Dec-10 12:31N 46°12' W 123°48'3 6.7
2017-Dec-10 12:01N 46°11' W 123°52'1 2.6
2017-Dec-10 11:31N 46°11' W 123°54'0 0.6
2017-Dec-10 11:01N 46°11' W 123°54'3 4.8
2017-Dec-10 10:28N 46°13' W 123°57'2 3.6
2017-Dec-10 10:01N 46°14' W 123°59'1 1.3
2017-Dec-10 09:31N 46°15' W 123°59'2 4.7
2017-Dec-10 09:01N 46°16' W 124°02'2 3.6
2017-Dec-10 08:31N 46°15' W 124°05'2 3.4
2017-Dec-10 08:01N 46°14' W 124°07'2 4.1
2017-Dec-10 07:31N 46°13' W 124°09'2 3.8
2017-Dec-10 07:01N 46°13' W 124°12'2 3.4
2017-Dec-10 06:31N 46°13' W 124°14'2 3.5
2017-Dec-10 06:01N 46°14' W 124°16'2 3.8
2017-Dec-10 05:31N 46°16' W 124°17'2 4.1
2017-Dec-10 05:01N 46°18' W 124°18'2 4.2
2017-Dec-10 04:31N 46°20' W 124°19'2 4.3
2017-Dec-10 04:01N 46°22' W 124°20'2 4.5
2017-Dec-10 03:31N 46°24' W 124°21'2 4.7
2017-Dec-10 03:01N 46°26' W 124°21'2 4.8
2017-Dec-10 02:31N 46°29' W 124°22'2 4.9
2017-Dec-10 02:01N 46°31' W 124°23'3 5.2
2017-Dec-10 01:30N 46°33' W 124°24'3 5.4
2017-Dec-10 01:01N 46°36' W 124°25'3 5.7
2017-Dec-10 00:30N 46°39' W 124°26'3 5.6
2017-Dec-10 00:00N 46°42' W 124°26'3 5.9
2017-Dec-09 23:30N 46°44' W 124°27'3 6.0
2017-Dec-09 23:01N 46°47' W 124°28'3 6.0
2017-Dec-09 22:31N 46°50' W 124°29'3 6.0
2017-Dec-09 22:01N 46°53' W 124°30'3 6.1
2017-Dec-09 21:31N 46°56' W 124°30'3 6.2
2017-Dec-09 21:01N 46°59' W 124°32'3 5.8
2017-Dec-09 20:31N 47°02' W 124°33'3 5.9
2017-Dec-09 20:01N 47°05' W 124°34'3 6.1
2017-Dec-09 19:31N 47°08' W 124°35'4 5.8
2017-Dec-09 18:54N 47°11' W 124°36'3 5.7
2017-Dec-09 18:27N 47°14' W 124°37'6 5.5
2017-Dec-09 17:26N 47°19' W 124°39'2 5.3
2017-Dec-09 17:00N 47°21' W 124°40'3 5.5
2017-Dec-09 16:26N 47°24' W 124°41'48 5.5
2017-Dec-09 07:42N 48°11' W 124°58'3 5.6
2017-Dec-09 07:09N 48°14' W 124°58'1 5.7
2017-Dec-09 07:00N 48°15' W 124°57'6 6.0
2017-Dec-09 06:03N 48°20' W 124°53'0 6.0
2017-Dec-09 05:59N 48°20' W 124°53'3 6.4
2017-Dec-09 05:30N 48°23' W 124°51'3 6.3
2017-Dec-09 05:00N 48°25' W 124°47'4 7.3
2017-Dec-09 04:30N 48°26' W 124°42'4 8.4
2017-Dec-09 04:00N 48°25' W 124°36'4 7.5
2017-Dec-09 03:30N 48°23' W 124°31'4 7.2
2017-Dec-09 03:00N 48°22' W 124°26'4 7.6
2017-Dec-09 02:30N 48°20' W 124°21'4 7.5
2017-Dec-09 02:00N 48°18' W 124°16'4 7.1
2017-Dec-09 01:30N 48°17' W 124°11'4 7.0
2017-Dec-09 01:00N 48°15' W 124°07'4 7.2
2017-Dec-09 00:29N 48°13' W 124°02'3 6.9
2017-Dec-08 23:59N 48°12' W 123°57'3 7.1
2017-Dec-08 23:30N 48°12' W 123°52'4 7.7
2017-Dec-08 23:00N 48°12' W 123°46'4 8.9
2017-Dec-08 22:30N 48°12' W 123°39'4 8.7
2017-Dec-08 22:00N 48°15' W 123°34'4 8.9
2017-Dec-08 21:30N 48°18' W 123°29'4 7.3
2017-Dec-08 21:00N 48°21' W 123°27'3 6.4
2017-Dec-08 20:30N 48°24' W 123°27'2 4.2
2017-Dec-08 20:00N 48°27' W 123°27'1 1.2
2017-Dec-08 19:30N 48°26' W 123°26'1 1.3
2017-Dec-08 18:57N 48°27' W 123°27'0 0.0
2017-Dec-08 18:29N 48°27' W 123°27'0 0.0
2017-Dec-08 17:59N 48°27' W 123°27'0 0.2
2017-Dec-08 17:30N 48°27' W 123°27'0 0.3
2017-Dec-08 17:00N 48°27' W 123°27'3 5.6
2017-Dec-08 16:30N 48°24' W 123°26'4 8.0
2017-Dec-08 16:00N 48°20' W 123°24'5 9.6
2017-Dec-08 15:29N 48°15' W 123°27'4 9.1
2017-Dec-08 15:00N 48°14' W 123°33'4 8.6
2017-Dec-08 14:30N 48°13' W 123°40'4 7.4
2017-Dec-08 14:00N 48°12' W 123°45'510.1
2017-Dec-08 13:29N 48°12' W 123°53'4 9.1
2017-Dec-08 13:00N 48°13' W 123°59'5 8.8
2017-Dec-08 12:29N 48°16' W 124°05'4 8.9
2017-Dec-08 12:00N 48°17' W 124°11'4 8.4
2017-Dec-08 11:30N 48°19' W 124°17'4 7.6
2017-Dec-08 11:01N 48°21' W 124°22'4 7.3
2017-Dec-08 10:30N 48°22' W 124°27'4 7.7
2017-Dec-08 10:00N 48°24' W 124°32'3 6.3
2017-Dec-08 09:30N 48°25' W 124°37'3 5.7
2017-Dec-08 09:00N 48°26' W 124°41'3 5.4
2017-Dec-08 08:30N 48°26' W 124°45'3 6.0
2017-Dec-08 08:00N 48°24' W 124°48'3 6.6
2017-Dec-08 07:30N 48°22' W 124°52'3 6.3
2017-Dec-08 07:00N 48°19' W 124°55'3 6.1
2017-Dec-08 06:30N 48°17' W 124°57'3 7.1
2017-Dec-08 06:00N 48°13' W 124°57'4 7.4
2017-Dec-08 05:29N 48°10' W 124°56'7 7.6
2017-Dec-08 04:36N 48°04' W 124°51'59 8.8
2017-Dec-07 21:57N 47°08' W 124°24'510.2
2017-Dec-07 21:30N 47°04' W 124°22'510.2
2017-Dec-07 21:00N 46°59' W 124°21'5 9.6
2017-Dec-07 20:30N 46°54' W 124°19'5 9.6
2017-Dec-07 20:01N 46°49' W 124°17'5 9.5
2017-Dec-07 19:30N 46°45' W 124°15'5 9.6
2017-Dec-07 19:01N 46°40' W 124°14'5 9.3
2017-Dec-07 18:31N 46°36' W 124°12'5 9.5
2017-Dec-07 18:01N 46°31' W 124°10'9 9.6
2017-Dec-07 17:06N 46°22' W 124°09'1 9.3
2017-Dec-07 17:01N 46°22' W 124°09'5 9.2
2017-Dec-07 16:30N 46°17' W 124°09'611.1
2017-Dec-07 16:01N 46°15' W 124°01'612.8
2017-Dec-07 15:31N 46°11' W 123°54'611.8
2017-Dec-07 15:01N 46°13' W 123°46'510.6
2017-Dec-07 14:31N 46°16' W 123°39'5 9.9
2017-Dec-07 14:00N 46°16' W 123°32'4 8.3
2017-Dec-07 13:31N 46°14' W 123°26'4 8.9
2017-Dec-07 13:01N 46°10' W 123°25'4 8.9
2017-Dec-07 12:31N 46°09' W 123°19'4 8.8
2017-Dec-07 12:00N 46°10' W 123°13'4 8.8
2017-Dec-07 11:30N 46°11' W 123°07'510.2
2017-Dec-07 11:01N 46°08' W 123°00'510.5
2017-Dec-07 10:31N 46°05' W 122°54'510.2
2017-Dec-07 10:01N 46°00' W 122°51'5 9.6
2017-Dec-07 09:31N 45°56' W 122°48'510.8
2017-Dec-07 09:01N 45°51' W 122°47'510.2
2017-Dec-07 08:30N 45°46' W 122°46'510.4
2017-Dec-07 08:00N 45°40' W 122°46'2 4.0
2017-Dec-07 07:30N 45°39' W 122°45'0 0.0
2017-Dec-07 07:00N 45°39' W 122°45'3 5.0
2017-Dec-07 06:30N 45°38' W 122°42'5 9.8
2017-Dec-07 06:01N 45°36' W 122°35'5 9.9
2017-Dec-07 05:30N 45°35' W 122°28'5 9.2
2017-Dec-07 05:00N 45°34' W 122°22'510.0
2017-Dec-07 04:31N 45°33' W 122°15'4 8.6
2017-Dec-07 04:00N 45°35' W 122°09'5 9.3
2017-Dec-07 03:30N 45°36' W 122°03'  
Track history (hours):
 
Tides and Currents Weather Stations Pressure Air Temp Water Temp Dewpoint Dewpoint Depression Visibility Wind Speed Wind Dir Waves Ship Positions

Island Viking

Owner: Island Tug and Barge, Seattle, WA. More information available from US FCC via Universal Licensing System and Coast Guard Vessel Documentation Center.

Last reported at 2017-Dec-15 20:00 UTC. Time now 2017-Dec-15 20:01 UTC.
Position N 45°42' W 122°46'.

Length 35 m; draft 3.5 m.

Type: Towing. MMSI: 368637000.

Date/timePositionNaut miles runAvg speedWind from/ knotsBaromVisibWave heightAir tempDewpointWater temp
2017-Dec-15 20:00N 45°42' W 122°46'3 5.6
2017-Dec-15 19:30N 45°44' W 122°46'3 5.3
2017-Dec-15 19:00N 45°47' W 122°47'2 4.9
2017-Dec-15 18:30N 45°49' W 122°48'2 4.8
2017-Dec-15 18:01N 45°52' W 122°47'2 4.4
2017-Dec-15 17:30N 45°54' W 122°48'2 4.5
2017-Dec-15 17:00N 45°56' W 122°48'2 4.5
2017-Dec-15 16:30N 45°58' W 122°50'2 4.8
2017-Dec-15 16:00N 46°00' W 122°51'2 4.5
2017-Dec-15 15:31N 46°02' W 122°53'2 4.5
2017-Dec-15 15:00N 46°04' W 122°54'2 4.2
2017-Dec-15 14:31N 46°06' W 122°56'3 4.7
2017-Dec-15 13:54N 46°07' W 122°59'2 4.5
2017-Dec-15 13:30N 46°08' W 123°01'5 4.7
2017-Dec-15 12:23N 46°11' W 123°08'2 4.8
2017-Dec-15 12:00N 46°11' W 123°10'2 4.9
2017-Dec-15 11:30N 46°10' W 123°13'2 4.9
2017-Dec-15 11:00N 46°09' W 123°17'3 5.4
2017-Dec-15 10:30N 46°09' W 123°21'4 5.5
2017-Dec-15 09:52N 46°10' W 123°25'3 5.7
2017-Dec-15 09:20N 46°13' W 123°25'2 6.1
2017-Dec-15 09:00N 46°15' W 123°27'3 5.9
2017-Dec-15 08:30N 46°16' W 123°31'3 6.8
2017-Dec-15 08:00N 46°15' W 123°35'4 7.1
2017-Dec-15 07:30N 46°15' W 123°41'3 5.9
2017-Dec-15 07:00N 46°14' W 123°44'4 7.1
2017-Dec-15 06:28N 46°12' W 123°49'4 7.8
2017-Dec-15 06:00N 46°11' W 123°54'3 3.6
2017-Dec-15 05:05N 46°14' W 123°58'0 1.1
2017-Dec-15 05:00N 46°14' W 123°58'1 1.4
2017-Dec-15 04:30N 46°14' W 123°58'2 3.7
2017-Dec-15 04:00N 46°15' W 124°01'7 5.0
2017-Dec-15 02:30N 46°13' W 124°11'7 4.3
2017-Dec-15 01:00N 46°18' W 124°17'3 6.8
2017-Dec-15 00:30N 46°21' W 124°19'39 6.5
2017-Dec-14 18:30N 46°59' W 124°32'6 6.0
2017-Dec-14 17:34N 47°05' W 124°34'1 6.3
2017-Dec-14 17:20N 47°06' W 124°34'76 6.0
2017-Dec-14 04:46N 48°21' W 124°51'2 6.3
2017-Dec-14 04:30N 48°23' W 124°49'3 6.6
2017-Dec-14 04:00N 48°25' W 124°46'4 7.2
2017-Dec-14 03:30N 48°25' W 124°41'4 7.5
2017-Dec-14 03:00N 48°24' W 124°36'4 7.1
2017-Dec-14 02:30N 48°23' W 124°31'4 7.5
2017-Dec-14 02:00N 48°21' W 124°25'4 8.3
2017-Dec-14 01:30N 48°19' W 124°20'4 8.6
2017-Dec-14 01:00N 48°17' W 124°14'4 8.8
2017-Dec-14 00:30N 48°16' W 124°08'4 8.3
2017-Dec-13 23:58N 48°14' W 124°02'4 8.1
2017-Dec-13 23:29N 48°12' W 123°56'4 7.8
2017-Dec-13 23:00N 48°12' W 123°51'4 7.1
2017-Dec-13 22:30N 48°12' W 123°46'3 6.9
2017-Dec-13 22:00N 48°12' W 123°40'4 7.1
2017-Dec-13 21:29N 48°14' W 123°36'3 6.9
2017-Dec-13 21:00N 48°16' W 123°31'4 7.1
2017-Dec-13 20:29N 48°19' W 123°29'4 6.8
2017-Dec-13 19:56N 48°22' W 123°26'3 6.2
2017-Dec-13 19:30N 48°25' W 123°27'2 3.3
2017-Dec-13 18:59N 48°27' W 123°27'0 0.2
2017-Dec-13 18:30N 48°27' W 123°27'0 0.2
2017-Dec-13 18:00N 48°27' W 123°27'0 0.1
2017-Dec-13 17:30N 48°27' W 123°27'0 0.3
2017-Dec-13 16:59N 48°27' W 123°27'0 0.4
2017-Dec-13 16:27N 48°27' W 123°27'0 0.4
2017-Dec-13 15:59N 48°27' W 123°27'1 1.0
2017-Dec-13 15:30N 48°26' W 123°27'1 2.9
2017-Dec-13 15:00N 48°25' W 123°27'0 0.2
2017-Dec-13 14:30N 48°25' W 123°26'1 1.7
2017-Dec-13 14:00N 48°24' W 123°26'3 5.6
2017-Dec-13 13:30N 48°21' W 123°24'4 6.5
2017-Dec-13 12:57N 48°18' W 123°26'4 7.6
2017-Dec-13 12:29N 48°15' W 123°28'3 7.0
2017-Dec-13 12:00N 48°13' W 123°33'3 6.5
2017-Dec-13 11:30N 48°13' W 123°38'4 7.7
2017-Dec-13 11:00N 48°13' W 123°43'4 8.4
2017-Dec-13 10:30N 48°13' W 123°50'4 8.2
2017-Dec-13 10:00N 48°13' W 123°56'4 7.8
2017-Dec-13 09:29N 48°14' W 124°02'4 7.7
2017-Dec-13 08:57N 48°16' W 124°07'3 7.8
2017-Dec-13 08:30N 48°17' W 124°12'4 8.5
2017-Dec-13 08:00N 48°19' W 124°18'4 8.7
2017-Dec-13 07:30N 48°21' W 124°24'5 9.1
2017-Dec-13 07:00N 48°22' W 124°30'4 8.8
2017-Dec-13 06:30N 48°24' W 124°36'4 7.7
2017-Dec-13 06:00N 48°25' W 124°42'4 7.1
2017-Dec-13 05:30N 48°25' W 124°47'4 7.9
2017-Dec-13 04:59N 48°22' W 124°51'4 8.2
2017-Dec-13 04:30N 48°18' W 124°54'4 8.0
2017-Dec-13 03:59N 48°15' W 124°57'3 7.2
2017-Dec-13 03:30N 48°12' W 124°58'5 7.6
2017-Dec-13 02:52N 48°07' W 124°57'63 7.6
2017-Dec-12 18:35N 47°06' W 124°34'1 6.9
2017-Dec-12 18:27N 47°05' W 124°34'3 6.9
2017-Dec-12 18:00N 47°02' W 124°32'3 6.7
2017-Dec-12 17:31N 46°59' W 124°31'3 6.7
2017-Dec-12 17:00N 46°55' W 124°30'3 6.9
2017-Dec-12 16:30N 46°52' W 124°29'3 6.9
2017-Dec-12 16:00N 46°49' W 124°28'4 7.2
2017-Dec-12 15:30N 46°45' W 124°27'4 7.1
2017-Dec-12 15:00N 46°42' W 124°24'3 6.8
2017-Dec-12 14:31N 46°39' W 124°21'4 7.1
2017-Dec-12 14:00N 46°36' W 124°20'4 7.4
2017-Dec-12 13:30N 46°32' W 124°20'4 7.3
2017-Dec-12 13:00N 46°29' W 124°19'4 7.1
2017-Dec-12 12:30N 46°25' W 124°19'3 6.9
2017-Dec-12 12:00N 46°22' W 124°19'3 6.8
2017-Dec-12 11:30N 46°19' W 124°16'4 7.3
2017-Dec-12 11:00N 46°17' W 124°11'3 6.7
2017-Dec-12 10:30N 46°16' W 124°07'4 7.6
2017-Dec-12 10:00N 46°15' W 124°01'4 8.9
2017-Dec-12 09:31N 46°12' W 123°57'4 8.9
2017-Dec-12 09:01N 46°12' W 123°50'4 8.7
2017-Dec-12 08:31N 46°13' W 123°45'4 7.9
2017-Dec-12 08:00N 46°15' W 123°40'4 8.0
2017-Dec-12 07:30N 46°15' W 123°34'4 7.5
2017-Dec-12 07:00N 46°16' W 123°29'3 6.8
2017-Dec-12 06:30N 46°14' W 123°25'4 6.6
2017-Dec-12 05:57N 46°10' W 123°25'4 6.5
2017-Dec-12 05:19N 46°09' W 123°19'2 6.7
2017-Dec-12 05:00N 46°09' W 123°16'3 6.8
2017-Dec-12 04:30N 46°11' W 123°12'3 6.7
2017-Dec-12 04:00N 46°11' W 123°07'4 7.4
2017-Dec-12 03:30N 46°09' W 123°03'4 7.9
2017-Dec-12 03:00N 46°07' W 122°58'4 8.0
2017-Dec-12 02:27N 46°04' W 122°53'4 8.0
2017-Dec-12 02:00N 46°01' W 122°51'4 8.0
2017-Dec-12 01:30N 45°57' W 122°48'4 8.0
2017-Dec-12 01:01N 45°53' W 122°48'4 7.7
2017-Dec-12 00:30N 45°49' W 122°48'4 7.8
2017-Dec-12 00:00N 45°46' W 122°46'4 7.6
2017-Dec-11 23:30N 45°42' W 122°46'3 5.9
2017-Dec-11 23:00N 45°39' W 122°45'0 0.6
2017-Dec-11 22:30N 45°39' W 122°45'0 0.0
2017-Dec-11 22:00N 45°39' W 122°45'0 0.1
2017-Dec-11 21:31N 45°39' W 122°45'0 0.0
2017-Dec-11 21:01N 45°39' W 122°45'0 0.0
2017-Dec-11 20:31N 45°39' W 122°45'0 0.0
2017-Dec-11 20:00N 45°39' W 122°45'0 0.0
2017-Dec-11 19:31N 45°39' W 122°45'0 0.1
2017-Dec-11 19:00N 45°39' W 122°45'0 0.1
2017-Dec-11 18:30N 45°39' W 122°45'0 0.0
2017-Dec-11 18:00N 45°39' W 122°45'0 0.0
2017-Dec-11 17:30N 45°39' W 122°45'0 0.1
2017-Dec-11 17:01N 45°39' W 122°45'0 0.0
2017-Dec-11 16:31N 45°39' W 122°45'0 0.2
2017-Dec-11 16:00N 45°39' W 122°45'0 0.2
2017-Dec-11 15:30N 45°39' W 122°45'0 0.0
2017-Dec-11 15:00N 45°39' W 122°45'0 0.0
2017-Dec-11 14:30N 45°39' W 122°45'0 0.0
2017-Dec-11 14:00N 45°39' W 122°45'0 0.0
2017-Dec-11 13:30N 45°39' W 122°45'0 0.0
2017-Dec-11 13:00N 45°39' W 122°45'0 0.0
2017-Dec-11 12:30N 45°39' W 122°45'0 0.0
2017-Dec-11 12:00N 45°39' W 122°45'0 0.0
2017-Dec-11 11:30N 45°39' W 122°45'0 0.0
2017-Dec-11 11:00N 45°39' W 122°45'0 0.0
2017-Dec-11 10:30N 45°39' W 122°45'0 0.0
2017-Dec-11 10:01N 45°39' W 122°45'0 0.0
2017-Dec-11 09:30N 45°39' W 122°45'0 0.0
2017-Dec-11 09:00N 45°39' W 122°45'0 0.0
2017-Dec-11 08:28N 45°39' W 122°45'0 0.0
2017-Dec-11 08:01N 45°39' W 122°45'0 0.0
2017-Dec-11 07:31N 45°39' W 122°45'0 0.0
2017-Dec-11 07:00N 45°39' W 122°45'0 0.0
2017-Dec-11 06:30N 45°39' W 122°45'0 0.0
2017-Dec-11 06:00N 45°39' W 122°45'0 0.0
2017-Dec-11 05:30N 45°39' W 122°45'0 0.0
2017-Dec-11 05:00N 45°39' W 122°45'0 0.0
2017-Dec-11 04:31N 45°39' W 122°45'0 0.0
2017-Dec-11 04:01N 45°39' W 122°45'0 0.9
2017-Dec-11 03:30N 45°39' W 122°45'0 0.9
2017-Dec-11 03:00N 45°39' W 122°45'1 2.0
2017-Dec-11 02:30N 45°40' W 122°46'2 4.1
2017-Dec-11 02:00N 45°42' W 122°46'2 4.3
2017-Dec-11 01:30N 45°44' W 122°46'2 4.3
2017-Dec-11 01:00N 45°46' W 122°46'4 6.9
2017-Dec-11 00:29N 45°50' W 122°47'0 1.0
2017-Dec-11 00:00N 45°50' W 122°47'2 3.9
2017-Dec-10 23:30N 45°52' W 122°47'2 3.7
2017-Dec-10 23:00N 45°54' W 122°48'2 4.0
2017-Dec-10 22:30N 45°56' W 122°48'2 4.0
2017-Dec-10 22:00N 45°58' W 122°49'2 4.4
2017-Dec-10 21:30N 45°60' W 122°51'2 4.4
2017-Dec-10 21:00N 46°01' W 122°52'2 4.3
2017-Dec-10 20:30N 46°03' W 122°53'2 4.4
2017-Dec-10 20:00N 46°05' W 122°55'3 4.7
2017-Dec-10 19:28N 46°07' W 122°58'2 4.9
2017-Dec-10 19:00N 46°08' W 123°01'2 4.9
2017-Dec-10 18:30N 46°09' W 123°04'3 5.1
2017-Dec-10 18:00N 46°11' W 123°07'3 5.2
2017-Dec-10 17:30N 46°11' W 123°10'3 5.6
2017-Dec-10 17:00N 46°10' W 123°14'3 5.8
2017-Dec-10 16:30N 46°09' W 123°18'3 5.9
2017-Dec-10 16:01N 46°09' W 123°22'3 6.0
2017-Dec-10 15:31N 46°11' W 123°25'4 6.2
2017-Dec-10 14:56N 46°14' W 123°26'3 6.5
2017-Dec-10 14:30N 46°16' W 123°28'3 6.6
2017-Dec-10 14:01N 46°15' W 123°33'5 7.1
2017-Dec-10 13:22N 46°15' W 123°40'3 7.3
2017-Dec-10 13:01N 46°14' W 123°43'4 7.4
2017-Dec-10 12:31N 46°12' W 123°48'3 6.7
2017-Dec-10 12:01N 46°11' W 123°52'1 2.6
2017-Dec-10 11:31N 46°11' W 123°54'0 0.6
2017-Dec-10 11:01N 46°11' W 123°54'3 4.8
2017-Dec-10 10:28N 46°13' W 123°57'2 3.6
2017-Dec-10 10:01N 46°14' W 123°59'1 1.3
2017-Dec-10 09:31N 46°15' W 123°59'2 4.7
2017-Dec-10 09:01N 46°16' W 124°02'2 3.6
2017-Dec-10 08:31N 46°15' W 124°05'2 3.4
2017-Dec-10 08:01N 46°14' W 124°07'2 4.1
2017-Dec-10 07:31N 46°13' W 124°09'2 3.8
2017-Dec-10 07:01N 46°13' W 124°12'2 3.4
2017-Dec-10 06:31N 46°13' W 124°14'2 3.5
2017-Dec-10 06:01N 46°14' W 124°16'2 3.8
2017-Dec-10 05:31N 46°16' W 124°17'2 4.1
2017-Dec-10 05:01N 46°18' W 124°18'2 4.2
2017-Dec-10 04:31N 46°20' W 124°19'2 4.3
2017-Dec-10 04:01N 46°22' W 124°20'2 4.5
2017-Dec-10 03:31N 46°24' W 124°21'2 4.7
2017-Dec-10 03:01N 46°26' W 124°21'2 4.8
2017-Dec-10 02:31N 46°29' W 124°22'2 4.9
2017-Dec-10 02:01N 46°31' W 124°23'3 5.2
2017-Dec-10 01:30N 46°33' W 124°24'3 5.4
2017-Dec-10 01:01N 46°36' W 124°25'3 5.7
2017-Dec-10 00:30N 46°39' W 124°26'3 5.6
2017-Dec-10 00:00N 46°42' W 124°26'3 5.9
2017-Dec-09 23:30N 46°44' W 124°27'3 6.0
2017-Dec-09 23:01N 46°47' W 124°28'3 6.0
2017-Dec-09 22:31N 46°50' W 124°29'3 6.0
2017-Dec-09 22:01N 46°53' W 124°30'3 6.1
2017-Dec-09 21:31N 46°56' W 124°30'3 6.2
2017-Dec-09 21:01N 46°59' W 124°32'3 5.8
2017-Dec-09 20:31N 47°02' W 124°33'3 5.9
2017-Dec-09 20:01N 47°05' W 124°34'3 6.1
2017-Dec-09 19:31N 47°08' W 124°35'4 5.8
2017-Dec-09 18:54N 47°11' W 124°36'3 5.7
2017-Dec-09 18:27N 47°14' W 124°37'6 5.5
2017-Dec-09 17:26N 47°19' W 124°39'2 5.3
2017-Dec-09 17:00N 47°21' W 124°40'3 5.5
2017-Dec-09 16:26N 47°24' W 124°41'48 5.5
2017-Dec-09 07:42N 48°11' W 124°58'3 5.6
2017-Dec-09 07:09N 48°14' W 124°58'1 5.7
2017-Dec-09 07:00N 48°15' W 124°57'6 6.0
2017-Dec-09 06:03N 48°20' W 124°53'0 6.0
2017-Dec-09 05:59N 48°20' W 124°53'3 6.4
2017-Dec-09 05:30N 48°23' W 124°51'3 6.3
2017-Dec-09 05:00N 48°25' W 124°47'4 7.3
2017-Dec-09 04:30N 48°26' W 124°42'4 8.4
2017-Dec-09 04:00N 48°25' W 124°36'4 7.5
2017-Dec-09 03:30N 48°23' W 124°31'4 7.2
2017-Dec-09 03:00N 48°22' W 124°26'4 7.6
2017-Dec-09 02:30N 48°20' W 124°21'4 7.5
2017-Dec-09 02:00N 48°18' W 124°16'4 7.1
2017-Dec-09 01:30N 48°17' W 124°11'4 7.0
2017-Dec-09 01:00N 48°15' W 124°07'4 7.2
2017-Dec-09 00:29N 48°13' W 124°02'3 6.9
2017-Dec-08 23:59N 48°12' W 123°57'3 7.1
2017-Dec-08 23:30N 48°12' W 123°52'4 7.7
2017-Dec-08 23:00N 48°12' W 123°46'4 8.9
2017-Dec-08 22:30N 48°12' W 123°39'4 8.7
2017-Dec-08 22:00N 48°15' W 123°34'4 8.9
2017-Dec-08 21:30N 48°18' W 123°29'4 7.3
2017-Dec-08 21:00N 48°21' W 123°27'3 6.4
2017-Dec-08 20:30N 48°24' W 123°27'2 4.2
2017-Dec-08 20:00N 48°27' W 123°27'1 1.2
2017-Dec-08 19:30N 48°26' W 123°26'1 1.3
2017-Dec-08 18:57N 48°27' W 123°27'0 0.0
2017-Dec-08 18:29N 48°27' W 123°27'0 0.0
2017-Dec-08 17:59N 48°27' W 123°27'0 0.2
2017-Dec-08 17:30N 48°27' W 123°27'0 0.3
2017-Dec-08 17:00N 48°27' W 123°27'3 5.6
2017-Dec-08 16:30N 48°24' W 123°26'4 8.0
2017-Dec-08 16:00N 48°20' W 123°24'5 9.6
2017-Dec-08 15:29N 48°15' W 123°27'4 9.1
2017-Dec-08 15:00N 48°14' W 123°33'4 8.6
2017-Dec-08 14:30N 48°13' W 123°40'4 7.4
2017-Dec-08 14:00N 48°12' W 123°45'510.1
2017-Dec-08 13:29N 48°12' W 123°53'4 9.1
2017-Dec-08 13:00N 48°13' W 123°59'5 8.8
2017-Dec-08 12:29N 48°16' W 124°05'4 8.9
2017-Dec-08 12:00N 48°17' W 124°11'4 8.4
2017-Dec-08 11:30N 48°19' W 124°17'4 7.6
2017-Dec-08 11:01N 48°21' W 124°22'4 7.3
2017-Dec-08 10:30N 48°22' W 124°27'4 7.7
2017-Dec-08 10:00N 48°24' W 124°32'3 6.3
2017-Dec-08 09:30N 48°25' W 124°37'3 5.7
2017-Dec-08 09:00N 48°26' W 124°41'3 5.4
2017-Dec-08 08:30N 48°26' W 124°45'3 6.0
2017-Dec-08 08:00N 48°24' W 124°48'3 6.6
2017-Dec-08 07:30N 48°22' W 124°52'3 6.3
2017-Dec-08 07:00N 48°19' W 124°55'3 6.1
2017-Dec-08 06:30N 48°17' W 124°57'3 7.1
2017-Dec-08 06:00N 48°13' W 124°57'4 7.4
2017-Dec-08 05:29N 48°10' W 124°56'7 7.6
2017-Dec-08 04:36N 48°04' W 124°51'59 8.8
2017-Dec-07 21:57N 47°08' W 124°24'510.2
2017-Dec-07 21:30N 47°04' W 124°22'510.2
2017-Dec-07 21:00N 46°59' W 124°21'5 9.6
2017-Dec-07 20:30N 46°54' W 124°19'5 9.6
2017-Dec-07 20:01N 46°49' W 124°17'5 9.5
2017-Dec-07 19:30N 46°45' W 124°15'5 9.6
2017-Dec-07 19:01N 46°40' W 124°14'5 9.3
2017-Dec-07 18:31N 46°36' W 124°12'5 9.5
2017-Dec-07 18:01N 46°31' W 124°10'9 9.6
2017-Dec-07 17:06N 46°22' W 124°09'1 9.3
2017-Dec-07 17:01N 46°22' W 124°09'5 9.2
2017-Dec-07 16:30N 46°17' W 124°09'611.1
2017-Dec-07 16:01N 46°15' W 124°01'612.8
2017-Dec-07 15:31N 46°11' W 123°54'611.8
2017-Dec-07 15:01N 46°13' W 123°46'510.6
2017-Dec-07 14:31N 46°16' W 123°39'5 9.9
2017-Dec-07 14:00N 46°16' W 123°32'4 8.3
2017-Dec-07 13:31N 46°14' W 123°26'4 8.9
2017-Dec-07 13:01N 46°10' W 123°25'4 8.9
2017-Dec-07 12:31N 46°09' W 123°19'4 8.8
2017-Dec-07 12:00N 46°10' W 123°13'4 8.8
2017-Dec-07 11:30N 46°11' W 123°07'510.2
2017-Dec-07 11:01N 46°08' W 123°00'510.5
2017-Dec-07 10:31N 46°05' W 122°54'510.2
2017-Dec-07 10:01N 46°00' W 122°51'5 9.6
2017-Dec-07 09:31N 45°56' W 122°48'510.8
2017-Dec-07 09:01N 45°51' W 122°47'510.2
2017-Dec-07 08:30N 45°46' W 122°46'510.4
2017-Dec-07 08:00N 45°40' W 122°46'2 4.0
2017-Dec-07 07:30N 45°39' W 122°45'0 0.0
2017-Dec-07 07:00N 45°39' W 122°45'3 5.0
2017-Dec-07 06:30N 45°38' W 122°42'5 9.8
2017-Dec-07 06:01N 45°36' W 122°35'5 9.9
2017-Dec-07 05:30N 45°35' W 122°28'5 9.2
2017-Dec-07 05:00N 45°34' W 122°22'510.0
2017-Dec-07 04:31N 45°33' W 122°15'4 8.6
2017-Dec-07 04:00N 45°35' W 122°09'5 9.3
2017-Dec-07 03:30N 45°36' W 122°03'  

Dump ship's entire track history